Pilar Observatorio, Argentina

8:35 PM ART on January 30, 2015 (GMT -0300)
Ferreyra | Change Station
CLOSE
Current Station
Personal Weather Station
Location: Cordoba, CORDOBA
Elevation: 1335 ft
Nearby Weather Stations

Elev 1335 ft 31.45 °S, 64.12 °W | Updated 5 minutes ago

Partly Cloudy
Partly Cloudy
75.6 °F
Feels Like 78 °F
N
3.0
Wind Variable Wind from North
Gusts 3.0 mph

Today
High -- | Low -- °F
--% Chance of Precip.
Yesterday
High -- | Low -- °F
Precip. -- in
6:39 AM 8:18 PM
Waxing Gibbous, 86% visible
Pressure 30.04 in
Visibility 6.2 miles
Clouds Few 3000 ft
Heat Index 78 °F
Dew Point 63 °F
Humidity 65%
Rainfall 0.00 in
Snow Depth Not available.
UV 0 out of 12
Pollen Not available.
Air Quality Not available.
Flu Activity Not available.
METAR SACO 302300Z 05008KT 9999 FEW030 23/18 Q1017

More Conditions Fewer Conditions

Pressure 30.04 in
Visibility 6.2 miles
Clouds Few 3000 ft
Heat Index 78 °F
Dew Point 63 °F
Humidity 65%
Rainfall 0.00 in
Snow Depth Not available.
UV 0 out of 12
Pollen Not available.
Air Quality Not available.
Flu Activity Not available.
METAR SACO 302300Z 05008KT 9999 FEW030 23/18 Q1017

More Conditions Fewer Conditions

10-Day Weather Forecast

Almanac

Astronomy

Jan. 30, 2015 Rise Set
Actual Time
Civil Twilight
Nautical Twilight
Astronomical Twilight
Moon
Length of Visible Light
Length of Day
Tomorrow will be .
, % of the Moon is Illuminated

Today's Extremes

Country Highs Country Lows

Community

WunderPhotos

Upload Photos

1,791,932 photos uploaded!

WunderBlogs® & News

Nearby

Air Quality

  Air Quality AQ Index Pollutant
Not available.

Snow Depth

Station Depth Elevation

Earthquake Activity

City Distance Mag. Time & Date
Minimum magnitude displayed is 2.5.

Coastal Water Temperatures

Place Temperature

Nearby Weather Stations